createdAt,value
2023-02-03T00:01:48.336Z,1.73
2023-02-03T00:04:09.639Z,1.67
2023-02-03T00:06:32.130Z,1.60
2023-02-03T00:08:54.250Z,1.63
2023-02-03T00:11:16.688Z,1.70
2023-02-03T00:13:37.822Z,1.83
2023-02-03T00:15:59.089Z,1.90
2023-02-03T00:18:20.384Z,1.90
2023-02-03T00:20:41.876Z,2.07
2023-02-03T00:23:06.961Z,2.27
2023-02-03T00:25:28.096Z,1.67
2023-02-03T00:27:50.917Z,1.63
2023-02-03T00:30:12.711Z,1.70
2023-02-03T00:32:33.786Z,1.80
2023-02-03T00:34:54.910Z,1.50
2023-02-03T00:37:16.115Z,1.50
2023-02-03T00:39:37.429Z,1.80
2023-02-03T00:41:58.331Z,1.70
2023-02-03T00:44:20.946Z,1.80
2023-02-03T00:46:42.312Z,1.63
2023-02-03T00:49:03.629Z,1.63
2023-02-03T00:51:24.935Z,1.90
2023-02-03T00:53:45.961Z,1.70
2023-02-03T00:56:12.519Z,2.13
2023-02-03T00:58:33.518Z,1.60
2023-02-03T01:00:57.381Z,2.10
2023-02-03T01:03:18.386Z,1.90
2023-02-03T01:05:40.090Z,1.60
2023-02-03T01:08:01.760Z,1.80
2023-02-03T01:10:22.893Z,1.47
2023-02-03T01:12:44.085Z,1.63
2023-02-03T01:15:06.067Z,1.77
2023-02-03T01:17:28.676Z,1.40
2023-02-03T01:19:51.484Z,1.50
2023-02-03T01:22:12.605Z,1.70
2023-02-03T01:24:34.413Z,1.70
2023-02-03T01:26:55.812Z,1.70
2023-02-03T01:29:17.235Z,1.67
2023-02-03T01:31:40.187Z,1.70
2023-02-03T01:34:02.980Z,1.53
2023-02-03T01:36:25.281Z,1.60
2023-02-03T01:38:46.759Z,1.70
2023-02-03T01:41:09.091Z,1.63
2023-02-03T01:43:30.997Z,1.87
2023-02-03T01:45:52.088Z,1.70
2023-02-03T01:48:13.490Z,1.87
2023-02-03T01:50:37.529Z,1.80
2023-02-03T01:53:00.471Z,2.00
2023-02-03T01:55:24.202Z,2.40
2023-02-03T01:57:47.807Z,2.20
2023-02-03T02:00:09.711Z,1.87
2023-02-03T02:02:31.597Z,1.80
2023-02-03T02:04:56.216Z,2.47
2023-02-03T02:07:19.001Z,4.73
2023-02-03T02:09:40.152Z,2.60
2023-02-03T02:12:01.492Z,3.20
2023-02-03T02:14:22.894Z,1.60
2023-02-03T02:16:48.511Z,1.93
2023-02-03T02:19:24.758Z,1.80
2023-02-03T02:21:50.449Z,2.37
2023-02-03T02:24:36.115Z,3.10
2023-02-03T02:27:07.470Z,2.30
2023-02-03T02:29:37.031Z,2.07
2023-02-03T02:32:05.142Z,2.03
2023-02-03T02:34:31.965Z,1.90
2023-02-03T02:36:59.632Z,1.93
2023-02-03T02:39:23.803Z,2.20
2023-02-03T02:41:45.826Z,2.17
2023-02-03T02:44:10.634Z,1.97
2023-02-03T02:46:34.009Z,2.03
2023-02-03T02:49:00.112Z,2.03
2023-02-03T02:51:21.860Z,2.20
2023-02-03T02:53:45.285Z,2.20
2023-02-03T02:56:09.353Z,2.00
2023-02-03T02:58:33.068Z,2.20
2023-02-03T03:00:54.161Z,2.20
2023-02-03T03:03:16.591Z,2.07
2023-02-03T03:05:39.805Z,2.17
2023-02-03T03:08:02.909Z,2.47
2023-02-03T03:10:27.444Z,1.80
2023-02-03T03:12:51.141Z,2.13
2023-02-03T03:15:13.450Z,1.90
2023-02-03T03:17:35.637Z,1.93
2023-02-03T03:19:57.698Z,1.87
2023-02-03T03:22:21.872Z,1.93
2023-02-03T03:24:44.760Z,1.87
2023-02-03T03:27:07.979Z,2.00
2023-02-03T03:29:31.317Z,1.70
2023-02-03T03:31:52.581Z,2.07
2023-02-03T03:34:14.339Z,1.83
2023-02-03T03:36:39.857Z,1.60
2023-02-03T03:39:04.527Z,1.70
2023-02-03T03:41:28.153Z,1.90
2023-02-03T03:43:50.521Z,1.73
2023-02-03T03:46:14.424Z,1.60
2023-02-03T03:48:37.837Z,1.63
2023-02-03T03:51:01.401Z,1.60
2023-02-03T03:53:24.273Z,1.60
2023-02-03T03:55:49.164Z,1.40
2023-02-03T03:58:11.859Z,1.53
2023-02-03T04:00:35.328Z,1.50
2023-02-03T04:02:57.900Z,1.40
2023-02-03T04:05:19.873Z,1.37
2023-02-03T04:07:42.363Z,1.70
2023-02-03T04:10:04.333Z,1.40
2023-02-03T04:12:26.673Z,1.60
2023-02-03T04:14:47.959Z,1.50
2023-02-03T04:17:09.862Z,1.50
2023-02-03T04:19:31.518Z,1.63
2023-02-03T04:21:52.583Z,1.40
2023-02-03T04:24:13.966Z,1.60
2023-02-03T04:26:35.281Z,1.67
2023-02-03T04:28:58.002Z,1.40
2023-02-03T04:31:19.430Z,1.53
2023-02-03T04:33:40.729Z,1.70
2023-02-03T04:36:02.006Z,1.70
2023-02-03T04:38:23.167Z,1.50
2023-02-03T04:40:45.557Z,1.60
2023-02-03T04:43:07.351Z,1.60
2023-02-03T04:45:29.955Z,1.67
2023-02-03T04:47:54.327Z,1.77
2023-02-03T04:50:15.808Z,1.60
2023-02-03T04:52:37.134Z,1.90
2023-02-03T04:54:58.813Z,1.80
2023-02-03T04:57:20.051Z,2.00
2023-02-03T04:59:41.381Z,1.77
2023-02-03T05:02:04.628Z,1.67
2023-02-03T05:04:26.360Z,1.83
2023-02-03T05:06:47.700Z,1.70
2023-02-03T05:09:08.770Z,1.83
2023-02-03T05:11:30.032Z,1.70
2023-02-03T05:13:51.314Z,2.00
2023-02-03T05:16:12.469Z,1.80
2023-02-03T05:18:35.164Z,1.80
2023-02-03T05:20:56.418Z,2.17
2023-02-03T05:23:17.957Z,1.90
2023-02-03T05:25:39.266Z,1.80
2023-02-03T05:28:00.821Z,1.73
2023-02-03T05:30:22.520Z,1.87
2023-02-03T05:32:44.264Z,1.93
2023-02-03T05:35:07.509Z,1.80
2023-02-03T05:37:28.681Z,1.70
2023-02-03T05:39:50.040Z,2.00
2023-02-03T05:42:10.275Z,1.53
2023-02-03T05:44:31.827Z,1.77
2023-02-03T05:46:53.716Z,1.93
2023-02-03T05:49:14.932Z,2.00
2023-02-03T05:51:37.484Z,2.10
2023-02-03T05:53:58.952Z,2.03
2023-02-03T05:56:20.398Z,2.13
2023-02-03T05:58:41.574Z,2.17
2023-02-03T06:01:03.020Z,2.20
2023-02-03T06:03:24.816Z,2.40
2023-02-03T06:05:46.172Z,2.03
2023-02-03T06:08:09.123Z,2.40
2023-02-03T06:10:30.478Z,2.40
2023-02-03T06:12:52.093Z,2.43
2023-02-03T06:15:13.389Z,2.33
2023-02-03T06:17:36.024Z,2.17
2023-02-03T06:19:57.263Z,2.00
2023-02-03T06:22:18.570Z,1.80
2023-02-03T06:24:41.953Z,2.10
2023-02-03T06:27:02.986Z,2.00
2023-02-03T06:29:24.136Z,1.83
2023-02-03T06:31:45.507Z,2.00
2023-02-03T06:34:06.833Z,1.83
2023-02-03T06:36:28.268Z,1.73
2023-02-03T06:38:49.710Z,1.70
2023-02-03T06:41:12.247Z,1.60
2023-02-03T06:43:35.390Z,3.47
2023-02-03T06:45:56.593Z,1.40
2023-02-03T06:48:17.804Z,1.90
2023-02-03T06:50:39.023Z,1.90
2023-02-03T06:53:00.369Z,2.47
2023-02-03T06:55:21.609Z,2.20
2023-02-03T06:57:48.093Z,2.00
2023-02-03T07:00:10.878Z,2.00
2023-02-03T07:02:32.700Z,1.97
2023-02-03T07:04:54.064Z,2.00
2023-02-03T07:07:15.305Z,2.17
2023-02-03T07:09:36.569Z,2.07
2023-02-03T07:11:57.842Z,2.20
2023-02-03T07:14:20.518Z,2.00
2023-02-03T07:16:41.610Z,2.00
2023-02-03T07:19:02.789Z,1.70
2023-02-03T07:21:24.075Z,2.23
2023-02-03T07:23:47.506Z,2.03
2023-02-03T07:26:08.788Z,1.70
2023-02-03T07:28:30.068Z,1.90
2023-02-03T07:30:52.994Z,2.27
2023-02-03T07:33:14.129Z,1.93
2023-02-03T07:35:35.902Z,1.70
2023-02-03T07:37:57.353Z,2.13
2023-02-03T07:40:18.858Z,2.03
2023-02-03T07:42:42.281Z,2.10
2023-02-03T07:45:04.013Z,2.33
2023-02-03T07:47:26.955Z,2.10
2023-02-03T07:49:48.002Z,2.10
2023-02-03T07:52:09.240Z,2.23
2023-02-03T07:54:30.939Z,2.60
2023-02-03T07:56:52.346Z,2.17
2023-02-03T07:59:13.409Z,2.00
2023-02-03T08:01:34.729Z,2.50
2023-02-03T08:03:57.337Z,2.20
2023-02-03T08:06:19.286Z,1.90
2023-02-03T08:08:41.105Z,2.20
2023-02-03T08:11:02.444Z,2.47
2023-02-03T08:13:23.826Z,2.30
2023-02-03T08:15:45.187Z,2.27
2023-02-03T08:18:08.743Z,2.27
2023-02-03T08:20:31.495Z,2.10
2023-02-03T08:22:53.554Z,2.23
2023-02-03T08:25:14.851Z,2.00
2023-02-03T08:27:36.252Z,2.40
2023-02-03T08:29:57.223Z,2.20
2023-02-03T08:32:19.806Z,2.20
2023-02-03T08:34:41.526Z,2.17
2023-02-03T08:37:03.939Z,2.40
2023-02-03T08:39:25.405Z,2.40
2023-02-03T08:41:46.458Z,2.20
2023-02-03T08:44:08.368Z,2.27
2023-02-03T08:46:29.616Z,2.50
2023-02-03T08:48:52.871Z,2.23
2023-02-03T08:51:14.986Z,1.77
2023-02-03T08:53:37.482Z,2.50
2023-02-03T08:55:58.370Z,2.37
2023-02-03T08:58:19.577Z,2.20
2023-02-03T09:00:40.871Z,2.43
2023-02-03T09:03:02.060Z,2.67
2023-02-03T09:05:23.449Z,2.33
2023-02-03T09:07:44.491Z,2.43
2023-02-03T09:10:07.714Z,2.30
2023-02-03T09:12:28.714Z,2.93
2023-02-03T09:14:50.933Z,2.50
2023-02-03T09:17:11.997Z,2.20
2023-02-03T09:19:35.551Z,2.30
2023-02-03T09:21:57.903Z,2.33
2023-02-03T09:24:19.713Z,2.20
2023-02-03T09:26:42.221Z,2.57
2023-02-03T09:29:03.495Z,2.47
2023-02-03T09:31:24.899Z,2.70
2023-02-03T09:33:46.572Z,2.90
2023-02-03T09:36:08.891Z,8.50
2023-02-03T09:38:30.527Z,3.60
2023-02-03T09:40:59.979Z,2.30
2023-02-03T09:43:38.550Z,1.93
2023-02-03T09:46:04.215Z,2.07
2023-02-03T09:48:27.009Z,1.97
2023-02-03T09:50:50.030Z,2.50
2023-02-03T09:53:18.679Z,2.50
2023-02-03T09:55:41.025Z,2.50
2023-02-03T09:58:05.456Z,3.00
2023-02-03T10:00:29.922Z,3.37
2023-02-03T10:02:56.393Z,2.33
2023-02-03T10:05:21.488Z,2.07
2023-02-03T10:07:50.243Z,2.10
2023-02-03T10:10:16.792Z,2.43
2023-02-03T10:12:45.241Z,1.63
2023-02-03T10:15:21.314Z,2.20
2023-02-03T10:17:46.550Z,1.60
2023-02-03T10:20:12.983Z,1.83
2023-02-03T10:22:38.961Z,2.47
2023-02-03T10:25:01.896Z,2.07
2023-02-03T10:27:24.376Z,1.87
2023-02-03T10:29:45.577Z,1.80
2023-02-03T10:32:09.207Z,2.03
2023-02-03T10:34:31.751Z,1.83
2023-02-03T10:36:55.763Z,1.47
2023-02-03T10:39:22.113Z,1.73
2023-02-03T10:41:43.274Z,1.67
2023-02-03T10:44:06.218Z,1.93
2023-02-03T10:46:28.951Z,1.93
2023-02-03T10:48:50.622Z,1.60
2023-02-03T10:51:18.034Z,1.67
2023-02-03T10:53:38.956Z,1.47
2023-02-03T10:56:04.783Z,1.70
2023-02-03T10:58:27.815Z,1.80
2023-02-03T11:00:51.878Z,1.60
2023-02-03T11:03:22.313Z,2.03
2023-02-03T11:05:43.610Z,2.10
2023-02-03T11:08:14.451Z,1.97
2023-02-03T11:10:37.145Z,1.90
2023-02-03T11:13:12.230Z,1.83
2023-02-03T11:15:33.472Z,1.97
2023-02-03T11:17:54.604Z,1.83
2023-02-03T11:20:17.261Z,2.10
2023-02-03T11:22:38.955Z,1.43
2023-02-03T11:25:03.129Z,1.50
2023-02-03T11:27:25.349Z,1.83
2023-02-03T11:29:47.675Z,1.70
2023-02-03T11:32:18.379Z,1.70
2023-02-03T11:34:39.508Z,1.27
2023-02-03T11:37:11.106Z,1.30
2023-02-03T11:39:35.678Z,1.70
2023-02-03T11:41:58.374Z,1.47
2023-02-03T11:44:21.659Z,1.70
2023-02-03T11:46:43.133Z,1.70
2023-02-03T11:49:07.984Z,1.60
2023-02-03T11:51:33.831Z,1.63
2023-02-03T11:54:03.383Z,1.67
2023-02-03T11:56:31.453Z,1.60
2023-02-03T11:59:08.834Z,1.80
2023-02-03T12:01:43.347Z,2.47
2023-02-03T12:04:19.171Z,1.90
2023-02-03T12:06:49.028Z,1.97
2023-02-03T12:09:20.732Z,1.60
2023-02-03T12:11:48.903Z,1.80
2023-02-03T12:14:19.348Z,1.70
2023-02-03T12:16:55.963Z,1.83
2023-02-03T12:19:22.670Z,1.67
2023-02-03T12:21:44.793Z,1.70
2023-02-03T12:24:08.718Z,1.60
2023-02-03T12:26:34.122Z,1.70
2023-02-03T12:28:58.722Z,1.77
2023-02-03T12:31:24.587Z,1.40
2023-02-03T12:33:48.565Z,1.90
2023-02-03T12:36:11.555Z,2.47
2023-02-03T12:38:35.821Z,1.87
2023-02-03T12:41:00.139Z,1.70
2023-02-03T12:43:25.409Z,1.60
2023-02-03T12:45:51.137Z,1.83
2023-02-03T12:48:15.815Z,2.00
2023-02-03T12:50:40.729Z,1.30
2023-02-03T12:53:05.153Z,3.53
2023-02-03T12:55:29.793Z,1.23
2023-02-03T12:57:54.782Z,1.20
2023-02-03T13:00:20.248Z,1.60
2023-02-03T13:02:47.995Z,2.20
2023-02-03T13:05:17.562Z,1.70
2023-02-03T13:07:42.260Z,1.87
2023-02-03T13:10:06.221Z,1.87
2023-02-03T13:12:29.933Z,1.90
2023-02-03T13:14:52.656Z,2.00
2023-02-03T13:17:16.814Z,1.50
2023-02-03T13:19:41.799Z,1.43
2023-02-03T13:22:11.261Z,1.73
2023-02-03T13:24:32.715Z,2.03
2023-02-03T13:27:11.979Z,1.70
2023-02-03T13:29:45.503Z,1.50
2023-02-03T13:32:12.004Z,1.50
2023-02-03T13:34:39.210Z,2.00
2023-02-03T13:37:13.442Z,1.70
2023-02-03T13:39:41.336Z,1.87
2023-02-03T13:42:12.716Z,1.50
2023-02-03T13:44:34.358Z,2.50
2023-02-03T13:46:57.480Z,1.60
2023-02-03T13:49:23.559Z,1.90
2023-02-03T13:51:46.798Z,1.80
2023-02-03T13:54:14.280Z,1.50
2023-02-03T13:56:35.744Z,1.50
2023-02-03T13:59:01.630Z,1.60
2023-02-03T14:01:30.647Z,1.30
2023-02-03T14:03:52.285Z,2.00
2023-02-03T14:06:37.670Z,1.70
2023-02-03T14:09:00.559Z,1.60
2023-02-03T14:11:40.176Z,1.70
2023-02-03T14:14:24.539Z,1.47
2023-02-03T14:16:47.685Z,1.00
2023-02-03T14:19:10.137Z,1.50
2023-02-03T14:21:39.370Z,11.33
2023-02-03T14:24:03.964Z,2.30
2023-02-03T14:26:39.985Z,2.00
2023-02-03T14:29:01.626Z,1.40
2023-02-03T14:31:24.973Z,1.37
2023-02-03T14:33:51.327Z,1.50
2023-02-03T14:36:27.292Z,1.50
2023-02-03T14:38:48.771Z,1.30
2023-02-03T14:41:10.199Z,1.40
2023-02-03T14:43:36.036Z,1.40
2023-02-03T14:46:13.521Z,1.30
2023-02-03T14:48:43.747Z,1.40
2023-02-03T14:51:08.725Z,1.20
2023-02-03T14:53:40.379Z,1.10
2023-02-03T14:56:11.028Z,1.20
2023-02-03T14:58:34.336Z,1.50
2023-02-03T15:00:55.858Z,1.20
2023-02-03T15:03:20.078Z,1.30
2023-02-03T15:05:43.394Z,1.27
2023-02-03T15:08:04.821Z,1.13
2023-02-03T15:10:28.012Z,1.10
2023-02-03T15:12:49.962Z,1.20
2023-02-03T15:15:14.837Z,1.10
2023-02-03T15:17:37.477Z,1.00
2023-02-03T15:19:58.793Z,1.30
2023-02-03T15:22:23.223Z,1.40
2023-02-03T15:24:44.697Z,1.10
2023-02-03T15:27:05.553Z,1.30
2023-02-03T15:29:29.799Z,1.30
2023-02-03T15:31:53.145Z,1.17
2023-02-03T15:34:18.847Z,1.10
2023-02-03T15:36:43.250Z,1.03
2023-02-03T15:39:08.533Z,1.23
2023-02-03T15:41:29.667Z,1.00
2023-02-03T15:43:54.564Z,1.20
2023-02-03T15:46:18.729Z,1.63
2023-02-03T15:48:42.492Z,2.30
2023-02-03T15:51:06.511Z,1.10
2023-02-03T15:53:41.094Z,1.10
2023-02-03T15:56:17.920Z,1.47
2023-02-03T15:58:44.912Z,1.40
2023-02-03T16:01:09.697Z,1.50
2023-02-03T16:03:34.666Z,1.57
2023-02-03T16:05:55.651Z,1.30
2023-02-03T16:08:28.465Z,1.47
2023-02-03T16:10:49.728Z,1.50
2023-02-03T16:13:22.230Z,1.90
2023-02-03T16:15:43.584Z,2.00
2023-02-03T16:18:07.515Z,3.10
2023-02-03T16:20:29.297Z,2.23
2023-02-03T16:23:01.804Z,2.37
2023-02-03T16:25:23.536Z,2.30
2023-02-03T16:27:45.640Z,2.20
2023-02-03T16:30:39.225Z,2.37
2023-02-03T16:33:20.170Z,3.20
2023-02-03T16:35:59.150Z,2.30
2023-02-03T16:38:38.099Z,1.63
2023-02-03T16:41:17.078Z,2.53
2023-02-03T16:43:55.871Z,2.43
2023-02-03T16:46:36.124Z,1.47
2023-02-03T16:49:15.249Z,2.07
2023-02-03T16:51:40.208Z,1.40
2023-02-03T16:54:01.317Z,1.60
2023-02-03T16:56:22.588Z,1.70
2023-02-03T16:58:45.063Z,2.40
2023-02-03T17:01:06.760Z,1.53
2023-02-03T17:03:29.734Z,1.70
2023-02-03T17:05:51.887Z,2.10
2023-02-03T17:08:13.609Z,1.60
2023-02-03T17:10:35.208Z,1.50
2023-02-03T17:12:56.117Z,2.50
2023-02-03T17:15:17.390Z,2.00
2023-02-03T17:17:38.669Z,2.20
2023-02-03T17:20:01.400Z,2.03
2023-02-03T17:22:22.779Z,2.20
2023-02-03T17:24:45.540Z,2.00
2023-02-03T17:27:06.822Z,1.93
2023-02-03T17:29:28.082Z,3.67
2023-02-03T17:31:49.460Z,2.20
2023-02-03T17:34:10.596Z,2.43
2023-02-03T17:36:33.203Z,2.97
2023-02-03T17:54:54.056Z,3.93
2023-02-03T17:57:15.421Z,3.47
2023-02-03T17:59:37.811Z,2.00
2023-02-03T18:01:58.964Z,10.30
2023-02-03T18:04:20.918Z,4.30
2023-02-03T18:06:41.908Z,3.63
2023-02-03T18:09:04.985Z,2.13
2023-02-03T18:11:25.988Z,2.73
2023-02-03T18:13:48.045Z,3.13
2023-02-03T18:16:10.418Z,3.00
2023-02-03T18:18:31.495Z,3.27
2023-02-03T18:20:52.788Z,2.63
2023-02-03T18:23:14.495Z,2.50
2023-02-03T18:25:37.264Z,6.17
2023-02-03T18:27:58.295Z,2.47
2023-02-03T18:30:21.546Z,2.03
2023-02-03T18:32:42.775Z,2.90
2023-02-03T18:35:06.604Z,2.73
2023-02-03T18:37:28.165Z,3.73
2023-02-03T18:39:49.278Z,2.20
2023-02-03T18:42:11.984Z,2.00
2023-02-03T18:44:33.472Z,4.57
2023-02-03T18:46:54.947Z,3.67
2023-02-03T18:49:16.085Z,3.83
2023-02-03T18:51:37.566Z,2.90
2023-02-03T18:53:59.464Z,2.47
2023-02-03T18:56:21.437Z,2.70
2023-02-03T18:58:43.834Z,3.33
2023-02-03T19:01:05.272Z,2.50
2023-02-03T19:03:26.925Z,3.57
2023-02-03T19:05:48.397Z,5.83
2023-02-03T19:08:09.706Z,3.30
2023-02-03T19:10:32.322Z,3.20
2023-02-03T19:12:53.518Z,4.30
2023-02-03T19:15:16.209Z,5.87
2023-02-03T19:17:37.606Z,2.60
2023-02-03T19:19:58.945Z,2.40
2023-02-03T19:22:20.194Z,2.17
2023-02-03T19:24:41.995Z,2.10
2023-02-03T19:27:03.087Z,2.80
2023-02-03T19:29:24.251Z,2.57
2023-02-03T19:31:46.797Z,2.00
2023-02-03T19:34:08.177Z,2.20
2023-02-03T19:36:29.625Z,2.03
2023-02-03T19:38:50.736Z,1.97
2023-02-03T19:41:12.644Z,1.77
2023-02-03T19:43:34.394Z,2.10
2023-02-03T19:45:55.571Z,2.03
2023-02-03T19:48:18.229Z,2.00
2023-02-03T19:50:40.854Z,2.40
2023-02-03T19:53:02.050Z,2.63
2023-02-03T19:55:23.244Z,2.50
2023-02-03T19:57:44.786Z,2.70
2023-02-03T20:00:06.536Z,2.50
2023-02-03T20:02:27.898Z,2.63
2023-02-03T20:04:51.197Z,2.60
2023-02-03T20:07:12.522Z,3.03
2023-02-03T20:09:33.725Z,2.77
2023-02-03T20:11:56.113Z,2.60
2023-02-03T20:14:19.057Z,2.47
2023-02-03T20:16:40.287Z,2.53
2023-02-03T20:19:02.934Z,2.83
2023-02-03T20:21:25.355Z,2.70
2023-02-03T20:23:46.729Z,2.30
2023-02-03T20:26:07.986Z,2.77
2023-02-03T20:28:30.082Z,2.37
2023-02-03T20:30:52.311Z,2.60
2023-02-03T20:33:13.775Z,2.47
2023-02-03T20:35:35.104Z,2.57
2023-02-03T20:37:57.935Z,2.50
2023-02-03T20:40:22.190Z,3.53
2023-02-03T20:42:43.406Z,8.27
2023-02-03T20:45:08.097Z,4.77
2023-02-03T20:47:29.509Z,4.70
2023-02-03T20:49:50.798Z,4.80
2023-02-03T20:52:13.574Z,3.27
2023-02-03T20:54:37.108Z,3.80
2023-02-03T20:56:58.318Z,3.20
2023-02-03T20:59:20.215Z,2.90
2023-02-03T21:01:41.269Z,2.77
2023-02-03T21:04:20.148Z,2.93
2023-02-03T21:06:41.263Z,2.80
2023-02-03T21:09:06.673Z,2.40
2023-02-03T21:11:30.526Z,2.50
2023-02-03T21:13:51.821Z,2.97
2023-02-03T21:16:16.228Z,2.70
2023-02-03T21:18:39.989Z,2.50
2023-02-03T21:21:01.929Z,3.97
2023-02-03T21:23:25.450Z,2.53
2023-02-03T21:25:46.577Z,2.17
2023-02-03T21:28:21.443Z,2.60
2023-02-03T21:30:42.818Z,2.43
2023-02-03T21:33:16.444Z,2.20
2023-02-03T21:35:38.421Z,2.77
2023-02-03T21:38:02.027Z,4.60
2023-02-03T21:40:25.027Z,2.40
2023-02-03T21:42:47.155Z,2.13
2023-02-03T21:47:36.512Z,2.27
2023-02-03T21:49:58.235Z,2.27
2023-02-03T21:52:19.578Z,2.10
2023-02-03T21:54:43.540Z,2.27
2023-02-03T21:57:05.204Z,2.40
2023-02-03T21:59:29.527Z,2.30
2023-02-03T22:01:52.989Z,2.13
2023-02-03T22:04:15.742Z,3.87
2023-02-03T22:06:39.469Z,2.67
2023-02-03T22:09:00.588Z,2.50
2023-02-03T22:11:22.618Z,2.23
2023-02-03T22:13:44.012Z,1.93
2023-02-03T22:16:05.633Z,2.20
2023-02-03T22:18:26.954Z,2.47
2023-02-03T22:20:49.528Z,2.37
2023-02-03T22:23:10.833Z,3.23
2023-02-03T22:25:32.187Z,2.73
2023-02-03T22:27:53.459Z,3.07
2023-02-03T22:30:15.028Z,2.77
2023-02-03T22:32:36.027Z,2.70
2023-02-03T22:34:57.258Z,2.10
2023-02-03T22:37:19.925Z,2.40
2023-02-03T22:39:41.190Z,1.90
2023-02-03T22:42:02.404Z,2.03
2023-02-03T22:44:23.614Z,2.00
2023-02-03T22:46:45.084Z,2.20
2023-02-03T22:49:06.523Z,2.37
2023-02-03T22:51:27.975Z,2.40
2023-02-03T22:53:50.809Z,2.50
2023-02-03T22:56:11.906Z,2.10
2023-02-03T22:58:33.129Z,2.73
2023-02-03T23:00:54.726Z,2.60
2023-02-03T23:03:15.852Z,2.23
2023-02-03T23:05:37.159Z,2.53
2023-02-03T23:07:58.239Z,2.33
2023-02-03T23:10:21.929Z,2.40
2023-02-03T23:12:43.183Z,2.77
2023-02-03T23:15:04.642Z,5.40
2023-02-03T23:17:25.909Z,4.47
2023-02-03T23:19:46.938Z,6.90
2023-02-03T23:22:08.201Z,7.07
2023-02-03T23:24:29.361Z,6.17
2023-02-03T23:26:51.863Z,9.07
2023-02-03T23:29:13.239Z,14.20
2023-02-03T23:31:34.615Z,11.77
2023-02-03T23:34:13.471Z,4.80
2023-02-03T23:36:34.863Z,8.60
2023-02-03T23:38:56.256Z,4.83
2023-02-03T23:41:17.629Z,4.67
2023-02-03T23:43:40.223Z,4.43
2023-02-03T23:46:01.459Z,4.60
2023-02-03T23:48:22.656Z,4.30
2023-02-03T23:50:43.817Z,5.63
2023-02-03T23:53:05.336Z,4.60
2023-02-03T23:55:26.245Z,4.80
2023-02-03T23:57:47.804Z,4.40
